Time;durP1;ratioP1;P1;durP2;ratioP2;P2;SDS_P1;SDS_P2;PMS_P1;PMS_P2;Temp;Humidity;BMP_temperature;BMP_pressure;BME280_temperature;BME280_humidity;BME280_pressure;Samples;Min_cycle;Max_cycle;Signal;HPM_P1;HPM_P2
2023/09/25 11:32:44;;;;;;;1.00;0.90;;;;;;;;;;5157321;22;20054;-90
2023/09/25 11:35:12;;;;;;;1.60;1.10;;;;;;;;;;5034537;28;20029;-85
2023/09/25 11:38:12;;;;;;;1.20;1.05;;;;;;;;;;5035855;28;20029;-85
2023/09/25 11:40:38;;;;;;;1.13;1.00;;;;;;;;;;5034772;28;20040;-85
2023/09/25 11:43:06;;;;;;;1.25;1.15;;;;;;;;;;5034853;28;20037;-85
2023/09/25 11:45:32;;;;;;;1.77;1.27;;;;;;;;;;5034454;28;20092;-86
2023/09/25 16:14:20;;;;;;;2.53;1.20;;;;;;;;;;5050735;28;20044;-85
2023/09/25 16:16:46;;;;;;;1.20;1.10;;;;;;;;;;5045142;28;20631;-81
2023/09/25 16:19:11;;;;;;;1.30;1.20;;;;;;;;;;5044576;28;20021;-82
2023/09/25 16:21:37;;;;;;;1.52;1.42;;;;;;;;;;5053723;28;20025;-83
2023/09/25 16:24:02;;;;;;;1.35;1.10;;;;;;;;;;5054083;28;20151;-85
2023/09/25 16:26:28;;;;;;;1.55;1.05;;;;;;;;;;5036944;28;20053;-86
2023/09/25 16:28:53;;;;;;;6.03;1.30;;;;;;;;;;5034134;28;20036;-85
2023/09/25 16:31:19;;;;;;;1.67;1.00;;;;;;;;;;5033861;28;20112;-88
2023/09/25 16:33:44;;;;;;;1.90;1.30;;;;;;;;;;5034272;28;20103;-88
2023/09/25 16:36:12;;;;;;;2.15;0.93;;;;;;;;;;5033983;28;20106;-82
2023/09/25 16:38:38;;;;;;;4.15;1.35;;;;;;;;;;5034553;28;20033;-81
2023/09/25 16:41:07;;;;;;;2.17;1.17;;;;;;;;;;5032179;28;20116;-82
2023/09/25 16:43:34;;;;;;;3.20;1.08;;;;;;;;;;5033791;28;20030;-83
2023/09/25 16:45:59;;;;;;;2.00;1.00;;;;;;;;;;5033503;28;20049;-81
2023/09/25 16:48:25;;;;;;;1.35;1.20;;;;;;;;;;5033651;28;20439;-79
2023/09/25 16:50:50;;;;;;;1.50;1.23;;;;;;;;;;5033851;28;20033;-83
2023/09/25 16:53:16;;;;;;;1.95;1.35;;;;;;;;;;5034005;28;20030;-83
2023/09/25 16:55:47;;;;;;;2.15;1.30;;;;;;;;;;5034436;28;20095;-83
2023/09/25 16:58:17;;;;;;;1.58;1.23;;;;;;;;;;5034066;28;20063;-83
2023/09/25 17:00:43;;;;;;;1.42;1.13;;;;;;;;;;5033459;28;20110;-83
2023/09/25 17:03:12;;;;;;;1.85;1.40;;;;;;;;;;5033830;28;20029;-82
2023/09/25 17:05:38;;;;;;;1.77;1.42;;;;;;;;;;5034655;28;20052;-80
2023/09/25 17:08:04;;;;;;;1.25;1.15;;;;;;;;;;5035588;28;20028;-84
2023/09/25 17:10:30;;;;;;;1.50;1.40;;;;;;;;;;5034424;28;20025;-81
2023/09/25 17:12:57;;;;;;;1.52;1.35;;;;;;;;;;5033436;28;20468;-84
2023/09/25 17:15:23;;;;;;;2.22;1.33;;;;;;;;;;5033207;28;20048;-81
2023/09/25 17:17:49;;;;;;;1.30;1.20;;;;;;;;;;5033472;28;20029;-82
2023/09/25 17:20:15;;;;;;;2.50;1.40;;;;;;;;;;5033614;28;20028;-88
2023/09/25 17:22:40;;;;;;;1.95;1.40;;;;;;;;;;5033770;28;20088;-83
2023/09/25 17:25:06;;;;;;;1.73;1.50;;;;;;;;;;5042287;28;20112;-81
2023/09/25 17:27:31;;;;;;;2.25;1.40;;;;;;;;;;5056137;28;20033;-84
2023/09/25 17:29:57;;;;;;;1.65;1.27;;;;;;;;;;5055176;28;20029;-88
2023/09/25 17:32:23;;;;;;;3.78;1.20;;;;;;;;;;5057880;28;20413;-83
2023/09/25 17:34:49;;;;;;;2.13;1.50;;;;;;;;;;5059084;28;20033;-86
2023/09/25 17:37:15;;;;;;;1.73;1.30;;;;;;;;;;5059570;28;20060;-86
2023/09/25 17:39:41;;;;;;;1.55;1.15;;;;;;;;;;5058278;28;20036;-85
2023/09/25 17:42:06;;;;;;;1.95;1.20;;;;;;;;;;5058279;28;20025;-86
2023/09/25 17:44:32;;;;;;;1.27;1.13;;;;;;;;;;5059286;28;20033;-86
2023/09/25 17:46:57;;;;;;;2.38;1.10;;;;;;;;;;5061042;28;20036;-88
2023/09/25 17:49:23;;;;;;;1.33;1.23;;;;;;;;;;5059686;28;20037;-87
2023/09/25 17:51:49;;;;;;;3.50;1.98;;;;;;;;;;5058863;28;20029;-86
2023/09/25 17:54:14;;;;;;;5.07;1.92;;;;;;;;;;5055842;28;20039;-84
2023/09/25 17:56:40;;;;;;;1.80;1.52;;;;;;;;;;5056688;28;20017;-83
2023/09/25 17:59:06;;;;;;;2.55;1.77;;;;;;;;;;5056802;28;20029;-85
2023/09/25 18:01:31;;;;;;;2.63;2.10;;;;;;;;;;5056498;28;20032;-85
2023/09/25 18:03:58;;;;;;;2.17;1.77;;;;;;;;;;5056327;28;20360;-86
2023/09/25 18:06:23;;;;;;;2.67;2.20;;;;;;;;;;5056441;28;20386;-84
2023/09/25 18:08:49;;;;;;;3.15;1.40;;;;;;;;;;5056253;28;20021;-85
2023/09/25 18:11:14;;;;;;;2.22;1.50;;;;;;;;;;5055960;28;20029;-83
2023/09/25 18:13:40;;;;;;;1.65;1.48;;;;;;;;;;5062943;28;20047;-84
2023/09/25 18:16:05;;;;;;;2.25;1.67;;;;;;;;;;5077253;28;20047;-85
2023/09/25 18:18:31;;;;;;;1.40;1.30;;;;;;;;;;5076460;28;20150;-85
2023/09/25 18:21:00;;;;;;;2.78;1.42;;;;;;;;;;5075860;28;20493;-84
2023/09/25 18:23:25;;;;;;;1.73;1.30;;;;;;;;;;5076202;28;20028;-86
2023/09/25 18:25:52;;;;;;;1.55;1.10;;;;;;;;;;5076148;28;20025;-83
2023/09/25 18:28:17;;;;;;;1.45;1.35;;;;;;;;;;5075826;28;20029;-81
2023/09/25 18:30:43;;;;;;;3.00;1.70;;;;;;;;;;5075983;28;20359;-83
2023/09/25 18:33:09;;;;;;;2.17;1.50;;;;;;;;;;5075642;28;20020;-80
2023/09/25 18:35:36;;;;;;;3.35;1.00;;;;;;;;;;5075804;28;20029;-83
2023/09/25 18:38:02;;;;;;;2.67;1.45;;;;;;;;;;5075603;28;20425;-83
2023/09/25 18:40:27;;;;;;;2.28;1.58;;;;;;;;;;5075514;28;20078;-82
2023/09/25 18:42:55;;;;;;;1.98;1.77;;;;;;;;;;5075646;28;20020;-84
2023/09/25 18:45:20;;;;;;;1.83;1.60;;;;;;;;;;5075512;28;20021;-83
2023/09/25 18:47:46;;;;;;;2.42;1.33;;;;;;;;;;5075358;28;20035;-82
2023/09/25 18:50:11;;;;;;;1.48;1.23;;;;;;;;;;5075440;28;20021;-81
2023/09/25 18:52:37;;;;;;;2.20;1.70;;;;;;;;;;5075555;28;20111;-84
2023/09/25 18:55:03;;;;;;;3.35;2.10;;;;;;;;;;5075191;28;20123;-85
2023/09/25 18:57:29;;;;;;;2.40;1.55;;;;;;;;;;5075662;28;20024;-82
2023/09/25 18:59:54;;;;;;;1.60;1.50;;;;;;;;;;5075185;28;20398;-84
2023/09/25 19:02:20;;;;;;;1.60;1.35;;;;;;;;;;5075301;28;20028;-83
2023/09/25 19:04:46;;;;;;;2.53;1.70;;;;;;;;;;5075247;28;20024;-83
2023/09/25 19:07:11;;;;;;;2.30;1.30;;;;;;;;;;5075231;28;20082;-81
2023/09/25 19:09:37;;;;;;;2.53;1.50;;;;;;;;;;5075039;28;20040;-84
2023/09/25 19:12:02;;;;;;;1.38;1.27;;;;;;;;;;5057244;28;20107;-82
2023/09/25 19:14:28;;;;;;;1.98;1.30;;;;;;;;;;5074863;28;20390;-84
2023/09/25 19:16:53;;;;;;;1.55;1.30;;;;;;;;;;5075344;28;20025;-84
2023/09/25 19:19:19;;;;;;;1.95;1.65;;;;;;;;;;5075218;28;20371;-81
2023/09/25 19:21:44;;;;;;;2.10;1.70;;;;;;;;;;5075339;28;20379;-83
2023/09/25 19:24:10;;;;;;;1.65;1.52;;;;;;;;;;5075325;28;20032;-80
2023/09/25 19:26:35;;;;;;;2.22;1.75;;;;;;;;;;5076035;28;20498;-82
2023/09/25 19:29:02;;;;;;;3.30;1.50;;;;;;;;;;5075779;28;20026;-82
2023/09/25 19:31:28;;;;;;;1.80;1.42;;;;;;;;;;5075407;28;20101;-82
2023/09/25 19:33:54;;;;;;;2.10;1.60;;;;;;;;;;5075438;28;20025;-84
2023/09/25 19:36:20;;;;;;;2.25;1.70;;;;;;;;;;5075079;28;20025;-82
2023/09/25 19:38:46;;;;;;;2.55;1.70;;;;;;;;;;5075072;28;20028;-81
2023/09/25 19:41:12;;;;;;;3.10;2.10;;;;;;;;;;5075365;28;20096;-80
2023/09/25 19:43:38;;;;;;;3.47;1.85;;;;;;;;;;5057706;28;20056;-81
2023/09/25 19:46:05;;;;;;;2.10;1.80;;;;;;;;;;5076272;28;20025;-82
2023/09/25 19:48:31;;;;;;;4.53;2.10;;;;;;;;;;5075468;28;20383;-81
2023/09/25 19:50:56;;;;;;;1.80;1.38;;;;;;;;;;5075230;28;20032;-83
2023/09/25 19:53:22;;;;;;;1.63;1.50;;;;;;;;;;5074721;28;20020;-83
2023/09/25 19:55:48;;;;;;;1.75;1.60;;;;;;;;;;5056143;28;20024;-85
2023/09/25 19:58:14;;;;;;;2.10;1.90;;;;;;;;;;5074221;28;20033;-84
2023/09/25 20:00:39;;;;;;;2.75;2.17;;;;;;;;;;5074384;28;20511;-84
2023/09/25 20:03:05;;;;;;;2.28;1.60;;;;;;;;;;5074189;28;20115;-81
2023/09/25 20:05:31;;;;;;;1.60;1.27;;;;;;;;;;5074287;28;20017;-83
2023/09/25 20:07:58;;;;;;;1.70;1.50;;;;;;;;;;5073814;28;20046;-80
2023/09/25 20:10:24;;;;;;;1.90;1.38;;;;;;;;;;5074176;28;20029;-80
2023/09/25 20:12:49;;;;;;;2.03;1.83;;;;;;;;;;5073926;28;20032;-81
2023/09/25 20:15:15;;;;;;;3.72;1.95;;;;;;;;;;5073799;28;20045;-79
2023/09/25 20:17:41;;;;;;;2.80;1.83;;;;;;;;;;5073931;28;20078;-80
2023/09/25 20:20:07;;;;;;;2.95;1.70;;;;;;;;;;5073747;28;20016;-81
2023/09/25 20:22:32;;;;;;;1.58;1.42;;;;;;;;;;5073871;28;20071;-80
2023/09/25 20:24:58;;;;;;;3.47;1.98;;;;;;;;;;5073776;28;20024;-80
2023/09/25 20:27:23;;;;;;;2.85;2.13;;;;;;;;;;5073737;28;20063;-80
2023/09/25 20:29:49;;;;;;;2.38;1.80;;;;;;;;;;5073854;28;20025;-80
2023/09/25 20:32:14;;;;;;;1.83;1.73;;;;;;;;;;5073649;28;20032;-80
2023/09/25 20:34:40;;;;;;;2.28;1.80;;;;;;;;;;5073744;28;20024;-81
2023/09/25 20:37:05;;;;;;;2.35;1.77;;;;;;;;;;5073762;28;20029;-88
2023/09/25 20:39:31;;;;;;;2.05;1.83;;;;;;;;;;5074234;28;20502;-91
2023/09/25 20:41:56;;;;;;;2.88;2.05;;;;;;;;;;5073928;28;20032;-84
2023/09/25 20:44:22;;;;;;;2.70;2.17;;;;;;;;;;5073713;28;20029;-83
2023/09/25 20:46:49;;;;;;;2.20;1.98;;;;;;;;;;5073939;28;20028;-82
2023/09/25 20:49:15;;;;;;;3.05;1.95;;;;;;;;;;5073530;28;20066;-84
2023/09/25 20:51:41;;;;;;;2.38;1.85;;;;;;;;;;5073763;28;20103;-82
2023/09/25 20:54:07;;;;;;;2.25;1.63;;;;;;;;;;5073447;28;20024;-82
2023/09/25 20:56:32;;;;;;;1.90;1.55;;;;;;;;;;5073397;28;20021;-82
2023/09/25 20:58:58;;;;;;;2.58;1.90;;;;;;;;;;5056006;28;20104;-82
2023/09/25 21:01:24;;;;;;;2.47;1.80;;;;;;;;;;5073437;28;20028;-81
2023/09/25 21:03:49;;;;;;;3.47;1.90;;;;;;;;;;5073497;28;20028;-82
2023/09/25 21:06:15;;;;;;;2.60;1.70;;;;;;;;;;5073596;28;20079;-81
2023/09/25 21:08:41;;;;;;;2.35;1.48;;;;;;;;;;5077376;28;20038;-81
2023/09/25 21:11:07;;;;;;;1.73;1.60;;;;;;;;;;5077155;28;20099;-81
2023/09/25 21:13:34;;;;;;;2.50;1.75;;;;;;;;;;5077143;28;20052;-82
2023/09/25 21:16:00;;;;;;;1.92;1.73;;;;;;;;;;5059352;28;20024;-82
2023/09/25 21:18:26;;;;;;;2.67;1.85;;;;;;;;;;5077490;28;20056;-81
2023/09/25 21:20:51;;;;;;;3.28;1.80;;;;;;;;;;5076972;28;20059;-81
2023/09/25 21:23:17;;;;;;;2.60;1.95;;;;;;;;;;5077270;28;20032;-82
2023/09/25 21:25:42;;;;;;;2.10;1.85;;;;;;;;;;5077296;28;20386;-82
2023/09/25 21:28:08;;;;;;;3.05;2.00;;;;;;;;;;5076978;28;20028;-82
2023/09/25 21:30:33;;;;;;;3.67;2.45;;;;;;;;;;5076815;28;20078;-81
2023/09/25 21:32:59;;;;;;;2.47;1.85;;;;;;;;;;5077249;28;20028;-82
2023/09/25 21:35:25;;;;;;;1.77;1.55;;;;;;;;;;5077068;28;20514;-82
2023/09/25 21:37:50;;;;;;;2.70;2.10;;;;;;;;;;5076962;28;20103;-82
2023/09/25 21:40:16;;;;;;;3.83;2.30;;;;;;;;;;5077093;28;20025;-83
2023/09/25 21:42:41;;;;;;;3.42;1.80;;;;;;;;;;5076918;28;20103;-81
2023/09/25 21:45:07;;;;;;;3.72;2.15;;;;;;;;;;5076848;28;20459;-83
2023/09/25 21:47:33;;;;;;;3.28;2.10;;;;;;;;;;5076787;28;20131;-83
2023/09/25 21:49:58;;;;;;;2.38;1.98;;;;;;;;;;5076721;28;20028;-82
2023/09/25 21:52:25;;;;;;;2.97;1.90;;;;;;;;;;5076566;28;20360;-80
2023/09/25 21:54:50;;;;;;;2.35;2.08;;;;;;;;;;5075411;28;20106;-83
2023/09/25 21:57:16;;;;;;;2.67;1.90;;;;;;;;;;5076561;28;20459;-83
2023/09/25 21:59:42;;;;;;;2.85;1.70;;;;;;;;;;5058491;28;20029;-83
2023/09/25 22:02:08;;;;;;;2.67;2.00;;;;;;;;;;5076594;28;20028;-83
2023/09/25 22:04:33;;;;;;;2.65;2.33;;;;;;;;;;5076302;28;20031;-82
2023/09/25 22:06:59;;;;;;;2.13;1.90;;;;;;;;;;5076209;28;20021;-82
2023/09/25 22:09:25;;;;;;;2.28;2.03;;;;;;;;;;5058357;28;20077;-81
2023/09/25 22:11:51;;;;;;;2.35;2.15;;;;;;;;;;5076376;28;20045;-83
2023/09/25 22:14:17;;;;;;;2.08;1.88;;;;;;;;;;5076008;28;20041;-80
2023/09/25 22:16:44;;;;;;;3.25;1.92;;;;;;;;;;5076171;28;20031;-82
2023/09/25 22:19:09;;;;;;;2.67;1.70;;;;;;;;;;5075665;28;20024;-79
2023/09/25 22:21:35;;;;;;;2.10;1.90;;;;;;;;;;5075931;28;20489;-80
